sensor_id;sensor_type;location;lat;lon;timestamp;temperature;humidity
9949;DHT22;5013;51.840;8.276;2022-08-19T00:01:45;20.30;1.00
9949;DHT22;5013;51.840;8.276;2022-08-19T00:04:13;20.30;45.80
9949;DHT22;5013;51.840;8.276;2022-08-19T00:06:42;20.20;1.00
9949;DHT22;5013;51.840;8.276;2022-08-19T00:09:10;20.10;1.00
9949;DHT22;5013;51.840;8.276;2022-08-19T00:11:37;20.10;99.90
9949;DHT22;5013;51.840;8.276;2022-08-19T00:14:04;20.10;1.00
9949;DHT22;5013;51.840;8.276;2022-08-19T00:16:30;20.10;99.90
9949;DHT22;5013;51.840;8.276;2022-08-19T00:18:56;20.00;1.00
9949;DHT22;5013;51.840;8.276;2022-08-19T00:21:23;20.00;1.00
9949;DHT22;5013;51.840;8.276;2022-08-19T00:23:49;20.00;99.90
9949;DHT22;5013;51.840;8.276;2022-08-19T00:26:15;19.90;1.00
9949;DHT22;5013;51.840;8.276;2022-08-19T00:28:41;19.90;99.90
9949;DHT22;5013;51.840;8.276;2022-08-19T00:31:08;19.80;1.00
9949;DHT22;5013;51.840;8.276;2022-08-19T00:33:34;19.90;1.00
9949;DHT22;5013;51.840;8.276;2022-08-19T00:36:07;19.90;1.00
9949;DHT22;5013;51.840;8.276;2022-08-19T00:38:34;19.80;99.90
9949;DHT22;5013;51.840;8.276;2022-08-19T00:41:00;19.70;1.00
9949;DHT22;5013;51.840;8.276;2022-08-19T00:43:26;19.50;99.90
9949;DHT22;5013;51.840;8.276;2022-08-19T00:45:53;19.50;2.70
9949;DHT22;5013;51.840;8.276;2022-08-19T00:48:20;19.50;1.00
9949;DHT22;5013;51.840;8.276;2022-08-19T00:50:48;19.50;1.00
9949;DHT22;5013;51.840;8.276;2022-08-19T00:53:16;19.40;1.00
9949;DHT22;5013;51.840;8.276;2022-08-19T00:55:49;19.30;77.90
9949;DHT22;5013;51.840;8.276;2022-08-19T00:58:17;19.40;99.90
9949;DHT22;5013;51.840;8.276;2022-08-19T01:00:44;19.30;1.00
9949;DHT22;5013;51.840;8.276;2022-08-19T01:03:14;19.30;1.00
9949;DHT22;5013;51.840;8.276;2022-08-19T01:05:42;19.30;1.00
9949;DHT22;5013;51.840;8.276;2022-08-19T01:08:09;19.30;99.90
9949;DHT22;5013;51.840;8.276;2022-08-19T01:10:41;19.40;1.00
9949;DHT22;5013;51.840;8.276;2022-08-19T01:13:09;19.30;55.10
9949;DHT22;5013;51.840;8.276;2022-08-19T01:15:43;19.20;1.00
9949;DHT22;5013;51.840;8.276;2022-08-19T01:18:12;19.20;99.90
9949;DHT22;5013;51.840;8.276;2022-08-19T01:20:39;19.30;99.90
9949;DHT22;5013;51.840;8.276;2022-08-19T01:23:05;19.20;48.90
9949;DHT22;5013;51.840;8.276;2022-08-19T01:25:38;19.20;99.90
9949;DHT22;5013;51.840;8.276;2022-08-19T01:28:04;19.20;1.00
9949;DHT22;5013;51.840;8.276;2022-08-19T01:30:33;19.10;99.90
9949;DHT22;5013;51.840;8.276;2022-08-19T01:32:59;19.10;38.30
9949;DHT22;5013;51.840;8.276;2022-08-19T01:35:27;19.00;1.00
9949;DHT22;5013;51.840;8.276;2022-08-19T01:40:23;18.80;1.00
9949;DHT22;5013;51.840;8.276;2022-08-19T01:42:51;18.80;1.00
9949;DHT22;5013;51.840;8.276;2022-08-19T01:45:18;18.90;99.90
9949;DHT22;5013;51.840;8.276;2022-08-19T01:47:44;18.90;1.00
9949;DHT22;5013;51.840;8.276;2022-08-19T01:50:11;18.90;1.00
9949;DHT22;5013;51.840;8.276;2022-08-19T01:52:39;18.80;99.90
9949;DHT22;5013;51.840;8.276;2022-08-19T01:55:07;18.70;99.90
9949;DHT22;5013;51.840;8.276;2022-08-19T01:57:33;18.70;99.90
9949;DHT22;5013;51.840;8.276;2022-08-19T01:59:59;18.60;99.90
9949;DHT22;5013;51.840;8.276;2022-08-19T02:02:28;18.70;99.90
9949;DHT22;5013;51.840;8.276;2022-08-19T02:04:54;18.60;99.90
9949;DHT22;5013;51.840;8.276;2022-08-19T02:07:20;18.60;99.90
9949;DHT22;5013;51.840;8.276;2022-08-19T02:09:47;18.60;99.90
9949;DHT22;5013;51.840;8.276;2022-08-19T02:12:13;18.50;1.00
9949;DHT22;5013;51.840;8.276;2022-08-19T02:14:39;18.50;1.00
9949;DHT22;5013;51.840;8.276;2022-08-19T02:17:05;18.50;1.00
9949;DHT22;5013;51.840;8.276;2022-08-19T02:19:31;18.50;1.00
9949;DHT22;5013;51.840;8.276;2022-08-19T02:21:58;18.50;1.00
9949;DHT22;5013;51.840;8.276;2022-08-19T02:24:24;18.50;99.90
9949;DHT22;5013;51.840;8.276;2022-08-19T02:26:49;18.50;99.90
9949;DHT22;5013;51.840;8.276;2022-08-19T02:29:16;18.40;1.00
9949;DHT22;5013;51.840;8.276;2022-08-19T02:31:42;18.50;99.90
9949;DHT22;5013;51.840;8.276;2022-08-19T02:34:07;18.40;99.90
9949;DHT22;5013;51.840;8.276;2022-08-19T02:36:34;18.40;1.00
9949;DHT22;5013;51.840;8.276;2022-08-19T02:38:59;18.40;1.00
9949;DHT22;5013;51.840;8.276;2022-08-19T02:41:27;18.30;1.00
9949;DHT22;5013;51.840;8.276;2022-08-19T02:43:55;18.30;1.00
9949;DHT22;5013;51.840;8.276;2022-08-19T02:46:29;18.20;1.00
9949;DHT22;5013;51.840;8.276;2022-08-19T02:48:58;18.30;1.00
9949;DHT22;5013;51.840;8.276;2022-08-19T02:51:31;18.30;1.00
9949;DHT22;5013;51.840;8.276;2022-08-19T02:53:57;18.50;1.00
9949;DHT22;5013;51.840;8.276;2022-08-19T02:56:24;18.50;1.00
9949;DHT22;5013;51.840;8.276;2022-08-19T02:58:51;18.60;1.00
9949;DHT22;5013;51.840;8.276;2022-08-19T03:01:28;18.60;99.90
9949;DHT22;5013;51.840;8.276;2022-08-19T03:03:56;18.60;99.90
9949;DHT22;5013;51.840;8.276;2022-08-19T03:06:23;18.60;99.90
9949;DHT22;5013;51.840;8.276;2022-08-19T03:08:50;18.60;99.90
9949;DHT22;5013;51.840;8.276;2022-08-19T03:11:24;18.50;1.00
9949;DHT22;5013;51.840;8.276;2022-08-19T03:13:50;18.50;99.90
9949;DHT22;5013;51.840;8.276;2022-08-19T03:16:17;18.40;1.00
9949;DHT22;5013;51.840;8.276;2022-08-19T03:18:43;18.40;1.00
9949;DHT22;5013;51.840;8.276;2022-08-19T03:21:14;18.40;1.00
9949;DHT22;5013;51.840;8.276;2022-08-19T03:23:39;18.30;1.00
9949;DHT22;5013;51.840;8.276;2022-08-19T03:26:05;18.30;1.00
9949;DHT22;5013;51.840;8.276;2022-08-19T03:28:32;18.40;1.00
9949;DHT22;5013;51.840;8.276;2022-08-19T03:31:21;18.40;1.00
9949;DHT22;5013;51.840;8.276;2022-08-19T03:34:05;18.50;99.90
9949;DHT22;5013;51.840;8.276;2022-08-19T03:36:30;18.50;99.90
9949;DHT22;5013;51.840;8.276;2022-08-19T03:38:59;18.50;1.00
9949;DHT22;5013;51.840;8.276;2022-08-19T03:41:28;18.50;1.00
9949;DHT22;5013;51.840;8.276;2022-08-19T03:43:54;18.40;1.00
9949;DHT22;5013;51.840;8.276;2022-08-19T03:46:38;18.30;1.00
9949;DHT22;5013;51.840;8.276;2022-08-19T03:49:04;18.20;1.00
9949;DHT22;5013;51.840;8.276;2022-08-19T03:51:37;18.20;1.00
9949;DHT22;5013;51.840;8.276;2022-08-19T03:54:06;18.20;1.00
9949;DHT22;5013;51.840;8.276;2022-08-19T03:56:34;18.10;1.00
9949;DHT22;5013;51.840;8.276;2022-08-19T03:59:00;18.10;1.00
9949;DHT22;5013;51.840;8.276;2022-08-19T04:01:28;18.20;1.00
9949;DHT22;5013;51.840;8.276;2022-08-19T04:03:55;18.20;1.00
9949;DHT22;5013;51.840;8.276;2022-08-19T04:06:27;18.20;1.00
9949;DHT22;5013;51.840;8.276;2022-08-19T04:08:54;18.20;1.00
9949;DHT22;5013;51.840;8.276;2022-08-19T04:11:24;18.20;1.00
9949;DHT22;5013;51.840;8.276;2022-08-19T04:13:51;18.20;1.00
9949;DHT22;5013;51.840;8.276;2022-08-19T04:16:19;18.20;1.00
9949;DHT22;5013;51.840;8.276;2022-08-19T04:18:46;18.10;1.00
9949;DHT22;5013;51.840;8.276;2022-08-19T04:21:17;17.90;1.00
9949;DHT22;5013;51.840;8.276;2022-08-19T04:23:44;17.90;1.00
9949;DHT22;5013;51.840;8.276;2022-08-19T04:26:19;17.90;1.00
9949;DHT22;5013;51.840;8.276;2022-08-19T04:28:46;17.90;1.00
9949;DHT22;5013;51.840;8.276;2022-08-19T04:31:17;17.80;1.00
9949;DHT22;5013;51.840;8.276;2022-08-19T04:33:43;17.80;1.20
9949;DHT22;5013;51.840;8.276;2022-08-19T04:36:20;17.80;99.50
9949;DHT22;5013;51.840;8.276;2022-08-19T04:38:50;17.90;14.30
9949;DHT22;5013;51.840;8.276;2022-08-19T04:41:18;17.90;54.00
9949;DHT22;5013;51.840;8.276;2022-08-19T04:44:02;17.90;99.90
9949;DHT22;5013;51.840;8.276;2022-08-19T04:46:28;18.00;49.50
9949;DHT22;5013;51.840;8.276;2022-08-19T04:48:55;18.10;1.00
9949;DHT22;5013;51.840;8.276;2022-08-19T04:51:22;18.10;1.00
9949;DHT22;5013;51.840;8.276;2022-08-19T04:53:48;18.20;1.00
9949;DHT22;5013;51.840;8.276;2022-08-19T04:56:16;18.20;1.00
9949;DHT22;5013;51.840;8.276;2022-08-19T04:58:43;18.20;1.00
9949;DHT22;5013;51.840;8.276;2022-08-19T05:01:19;18.20;1.00
9949;DHT22;5013;51.840;8.276;2022-08-19T05:03:45;18.30;1.00
9949;DHT22;5013;51.840;8.276;2022-08-19T05:06:13;18.30;1.00
9949;DHT22;5013;51.840;8.276;2022-08-19T05:08:40;18.30;1.00
9949;DHT22;5013;51.840;8.276;2022-08-19T05:11:17;18.20;1.00
9949;DHT22;5013;51.840;8.276;2022-08-19T05:13:44;18.20;1.00
9949;DHT22;5013;51.840;8.276;2022-08-19T05:16:11;18.10;1.00
9949;DHT22;5013;51.840;8.276;2022-08-19T05:18:37;18.20;1.00
9949;DHT22;5013;51.840;8.276;2022-08-19T05:21:22;18.30;1.00
9949;DHT22;5013;51.840;8.276;2022-08-19T05:24:07;18.30;1.00
9949;DHT22;5013;51.840;8.276;2022-08-19T05:26:37;18.40;1.00
9949;DHT22;5013;51.840;8.276;2022-08-19T05:29:03;18.50;1.00
9949;DHT22;5013;51.840;8.276;2022-08-19T05:31:30;18.50;1.00
9949;DHT22;5013;51.840;8.276;2022-08-19T05:33:56;18.60;1.00
9949;DHT22;5013;51.840;8.276;2022-08-19T05:36:25;18.60;1.00
9949;DHT22;5013;51.840;8.276;2022-08-19T05:38:51;18.50;99.90
9949;DHT22;5013;51.840;8.276;2022-08-19T05:41:19;18.50;99.90
9949;DHT22;5013;51.840;8.276;2022-08-19T05:43:45;18.30;1.00
9949;DHT22;5013;51.840;8.276;2022-08-19T05:46:17;18.40;1.00
9949;DHT22;5013;51.840;8.276;2022-08-19T05:48:44;18.50;1.00
9949;DHT22;5013;51.840;8.276;2022-08-19T05:51:09;18.50;1.00
9949;DHT22;5013;51.840;8.276;2022-08-19T05:53:36;18.60;1.00
9949;DHT22;5013;51.840;8.276;2022-08-19T05:56:12;18.60;1.00
9949;DHT22;5013;51.840;8.276;2022-08-19T05:58:42;18.70;1.00
9949;DHT22;5013;51.840;8.276;2022-08-19T06:01:14;18.60;1.00
9949;DHT22;5013;51.840;8.276;2022-08-19T06:03:40;18.70;1.00
9949;DHT22;5013;51.840;8.276;2022-08-19T06:06:07;18.80;1.00
9949;DHT22;5013;51.840;8.276;2022-08-19T06:08:35;19.00;1.00
9949;DHT22;5013;51.840;8.276;2022-08-19T06:11:24;19.20;99.90
9949;DHT22;5013;51.840;8.276;2022-08-19T06:13:53;19.50;99.90
9949;DHT22;5013;51.840;8.276;2022-08-19T06:16:22;19.60;1.00
9949;DHT22;5013;51.840;8.276;2022-08-19T06:18:55;19.80;99.90
9949;DHT22;5013;51.840;8.276;2022-08-19T06:21:24;19.80;1.00
9949;DHT22;5013;51.840;8.276;2022-08-19T06:23:51;20.00;1.00
9949;DHT22;5013;51.840;8.276;2022-08-19T06:26:18;20.10;1.00
9949;DHT22;5013;51.840;8.276;2022-08-19T06:28:45;20.10;1.00
9949;DHT22;5013;51.840;8.276;2022-08-19T06:31:25;20.10;99.90
9949;DHT22;5013;51.840;8.276;2022-08-19T06:33:51;20.40;1.00
9949;DHT22;5013;51.840;8.276;2022-08-19T06:36:28;20.40;1.00
9949;DHT22;5013;51.840;8.276;2022-08-19T06:39:03;20.80;1.00
9949;DHT22;5013;51.840;8.276;2022-08-19T06:41:30;21.00;1.00
9949;DHT22;5013;51.840;8.276;2022-08-19T06:43:56;21.40;1.00
9949;DHT22;5013;51.840;8.276;2022-08-19T06:46:22;21.80;99.90
9949;DHT22;5013;51.840;8.276;2022-08-19T06:48:49;21.90;1.00
9949;DHT22;5013;51.840;8.276;2022-08-19T06:51:16;22.00;1.00
9949;DHT22;5013;51.840;8.276;2022-08-19T06:53:47;22.20;1.00
9949;DHT22;5013;51.840;8.276;2022-08-19T06:56:14;22.20;99.90
9949;DHT22;5013;51.840;8.276;2022-08-19T06:58:41;22.40;1.00
9949;DHT22;5013;51.840;8.276;2022-08-19T07:01:07;22.60;1.00
9949;DHT22;5013;51.840;8.276;2022-08-19T07:03:34;22.80;1.00
9949;DHT22;5013;51.840;8.276;2022-08-19T07:06:11;22.60;1.00
9949;DHT22;5013;51.840;8.276;2022-08-19T07:08:38;22.40;1.00
9949;DHT22;5013;51.840;8.276;2022-08-19T07:11:09;22.20;1.00
9949;DHT22;5013;51.840;8.276;2022-08-19T07:13:36;22.10;99.90
9949;DHT22;5013;51.840;8.276;2022-08-19T07:16:07;21.80;99.90
9949;DHT22;5013;51.840;8.276;2022-08-19T07:18:34;21.80;1.00
9949;DHT22;5013;51.840;8.276;2022-08-19T07:21:05;22.10;1.00
9949;DHT22;5013;51.840;8.276;2022-08-19T07:23:32;22.60;1.00
9949;DHT22;5013;51.840;8.276;2022-08-19T07:25:57;22.90;1.00
9949;DHT22;5013;51.840;8.276;2022-08-19T07:28:23;23.10;99.90
9949;DHT22;5013;51.840;8.276;2022-08-19T07:30:49;23.40;1.00
9949;DHT22;5013;51.840;8.276;2022-08-19T07:33:15;23.50;99.90
9949;DHT22;5013;51.840;8.276;2022-08-19T07:35:43;23.80;1.00
9949;DHT22;5013;51.840;8.276;2022-08-19T07:38:09;23.90;1.00
9949;DHT22;5013;51.840;8.276;2022-08-19T07:40:35;24.10;1.00
9949;DHT22;5013;51.840;8.276;2022-08-19T07:43:01;24.10;1.00
9949;DHT22;5013;51.840;8.276;2022-08-19T07:45:26;23.90;1.00
9949;DHT22;5013;51.840;8.276;2022-08-19T07:47:54;24.00;1.00
9949;DHT22;5013;51.840;8.276;2022-08-19T07:50:20;24.30;1.00
9949;DHT22;5013;51.840;8.276;2022-08-19T07:52:47;24.40;99.90
9949;DHT22;5013;51.840;8.276;2022-08-19T07:55:15;24.50;99.90
9949;DHT22;5013;51.840;8.276;2022-08-19T07:57:41;24.70;1.00
9949;DHT22;5013;51.840;8.276;2022-08-19T08:00:07;24.60;1.00
9949;DHT22;5013;51.840;8.276;2022-08-19T08:02:33;24.40;1.00
9949;DHT22;5013;51.840;8.276;2022-08-19T08:04:58;24.50;1.00
9949;DHT22;5013;51.840;8.276;2022-08-19T08:07:42;24.80;1.00
9949;DHT22;5013;51.840;8.276;2022-08-19T08:10:26;24.80;1.00
9949;DHT22;5013;51.840;8.276;2022-08-19T08:12:52;24.80;1.00
9949;DHT22;5013;51.840;8.276;2022-08-19T08:15:20;24.80;1.00
9949;DHT22;5013;51.840;8.276;2022-08-19T08:17:46;24.90;1.00
9949;DHT22;5013;51.840;8.276;2022-08-19T08:20:12;24.80;1.00
9949;DHT22;5013;51.840;8.276;2022-08-19T08:22:43;24.70;1.00
9949;DHT22;5013;51.840;8.276;2022-08-19T08:25:27;25.00;1.00
9949;DHT22;5013;51.840;8.276;2022-08-19T08:27:53;25.40;99.90
9949;DHT22;5013;51.840;8.276;2022-08-19T08:30:23;25.70;16.80
9949;DHT22;5013;51.840;8.276;2022-08-19T08:32:50;25.50;1.00
9949;DHT22;5013;51.840;8.276;2022-08-19T08:35:19;25.30;99.90
9949;DHT22;5013;51.840;8.276;2022-08-19T08:37:46;25.10;99.90
9949;DHT22;5013;51.840;8.276;2022-08-19T08:43:28;25.20;93.20
9949;DHT22;5013;51.840;8.276;2022-08-19T08:46:12;25.70;1.00
9949;DHT22;5013;51.840;8.276;2022-08-19T08:48:44;26.10;1.00
9949;DHT22;5013;51.840;8.276;2022-08-19T08:51:35;26.30;1.00
9949;DHT22;5013;51.840;8.276;2022-08-19T08:54:10;26.30;99.90
9949;DHT22;5013;51.840;8.276;2022-08-19T08:56:44;26.20;1.00
9949;DHT22;5013;51.840;8.276;2022-08-19T08:59:19;26.40;1.00
9949;DHT22;5013;51.840;8.276;2022-08-19T09:01:46;26.70;99.90
9949;DHT22;5013;51.840;8.276;2022-08-19T09:04:12;26.80;99.90
9949;DHT22;5013;51.840;8.276;2022-08-19T09:07:03;26.10;1.00
9949;DHT22;5013;51.840;8.276;2022-08-19T09:09:40;25.80;1.00
9949;DHT22;5013;51.840;8.276;2022-08-19T09:12:38;25.50;1.00
9949;DHT22;5013;51.840;8.276;2022-08-19T09:15:07;25.70;1.00
9949;DHT22;5013;51.840;8.276;2022-08-19T09:17:35;26.10;1.00
9949;DHT22;5013;51.840;8.276;2022-08-19T09:20:03;26.10;99.90
9949;DHT22;5013;51.840;8.276;2022-08-19T09:22:33;25.70;1.00
9949;DHT22;5013;51.840;8.276;2022-08-19T09:24:59;25.70;99.90
9949;DHT22;5013;51.840;8.276;2022-08-19T09:27:26;26.00;99.90
9949;DHT22;5013;51.840;8.276;2022-08-19T09:29:52;26.00;1.00
9949;DHT22;5013;51.840;8.276;2022-08-19T09:32:19;25.90;1.00
9949;DHT22;5013;51.840;8.276;2022-08-19T09:34:45;25.50;1.00
9949;DHT22;5013;51.840;8.276;2022-08-19T09:37:11;25.70;1.00
9949;DHT22;5013;51.840;8.276;2022-08-19T09:39:38;26.20;1.00
9949;DHT22;5013;51.840;8.276;2022-08-19T09:42:06;26.30;99.90
9949;DHT22;5013;51.840;8.276;2022-08-19T09:44:40;26.50;99.90
9949;DHT22;5013;51.840;8.276;2022-08-19T09:47:06;26.80;99.90
9949;DHT22;5013;51.840;8.276;2022-08-19T09:49:32;27.00;99.90
9949;DHT22;5013;51.840;8.276;2022-08-19T09:51:59;26.80;99.90
9949;DHT22;5013;51.840;8.276;2022-08-19T09:54:26;26.50;99.90
9949;DHT22;5013;51.840;8.276;2022-08-19T09:56:53;26.40;99.90
9949;DHT22;5013;51.840;8.276;2022-08-19T09:59:22;26.80;99.90
9949;DHT22;5013;51.840;8.276;2022-08-19T10:01:48;27.10;99.90
9949;DHT22;5013;51.840;8.276;2022-08-19T10:04:13;27.20;99.90
9949;DHT22;5013;51.840;8.276;2022-08-19T10:06:39;27.50;99.90
9949;DHT22;5013;51.840;8.276;2022-08-19T10:09:08;27.20;99.90
9949;DHT22;5013;51.840;8.276;2022-08-19T10:11:35;26.80;99.90
9949;DHT22;5013;51.840;8.276;2022-08-19T10:14:02;26.80;99.90
9949;DHT22;5013;51.840;8.276;2022-08-19T10:16:28;26.60;99.90
9949;DHT22;5013;51.840;8.276;2022-08-19T10:18:54;26.80;99.90
9949;DHT22;5013;51.840;8.276;2022-08-19T10:21:27;27.20;99.90
9949;DHT22;5013;51.840;8.276;2022-08-19T10:23:55;27.40;99.90
9949;DHT22;5013;51.840;8.276;2022-08-19T10:26:25;27.50;99.90
9949;DHT22;5013;51.840;8.276;2022-08-19T10:28:50;27.80;99.90
9949;DHT22;5013;51.840;8.276;2022-08-19T10:31:37;27.70;88.70
9949;DHT22;5013;51.840;8.276;2022-08-19T10:34:03;28.10;76.10
9949;DHT22;5013;51.840;8.276;2022-08-19T10:36:32;27.80;47.20
9949;DHT22;5013;51.840;8.276;2022-08-19T10:39:04;27.90;28.50
9949;DHT22;5013;51.840;8.276;2022-08-19T10:41:33;28.10;20.60
9949;DHT22;5013;51.840;8.276;2022-08-19T10:44:02;28.30;3.90
9949;DHT22;5013;51.840;8.276;2022-08-19T10:46:28;28.50;5.10
9949;DHT22;5013;51.840;8.276;2022-08-19T10:48:58;29.00;1.00
9949;DHT22;5013;51.840;8.276;2022-08-19T10:51:24;29.30;1.00
9949;DHT22;5013;51.840;8.276;2022-08-19T10:54:09;29.20;1.00
9949;DHT22;5013;51.840;8.276;2022-08-19T10:56:35;29.00;1.00
9949;DHT22;5013;51.840;8.276;2022-08-19T10:59:31;28.80;1.00
9949;DHT22;5013;51.840;8.276;2022-08-19T11:02:01;28.90;1.00
9949;DHT22;5013;51.840;8.276;2022-08-19T11:04:27;29.20;1.00
9949;DHT22;5013;51.840;8.276;2022-08-19T11:06:53;29.50;1.00
9949;DHT22;5013;51.840;8.276;2022-08-19T11:09:21;29.70;1.00
9949;DHT22;5013;51.840;8.276;2022-08-19T11:11:49;29.70;1.00
9949;DHT22;5013;51.840;8.276;2022-08-19T11:14:17;28.60;1.00
9949;DHT22;5013;51.840;8.276;2022-08-19T11:16:47;28.40;1.00
9949;DHT22;5013;51.840;8.276;2022-08-19T11:19:15;28.30;1.00
9949;DHT22;5013;51.840;8.276;2022-08-19T11:21:44;28.60;1.00
9949;DHT22;5013;51.840;8.276;2022-08-19T11:24:17;29.00;1.00
9949;DHT22;5013;51.840;8.276;2022-08-19T11:26:45;29.10;1.00
9949;DHT22;5013;51.840;8.276;2022-08-19T11:29:12;28.70;1.00
9949;DHT22;5013;51.840;8.276;2022-08-19T11:31:40;28.40;1.00
9949;DHT22;5013;51.840;8.276;2022-08-19T11:34:09;27.90;1.00
9949;DHT22;5013;51.840;8.276;2022-08-19T11:36:37;27.90;1.00
9949;DHT22;5013;51.840;8.276;2022-08-19T11:39:06;27.90;1.00
9949;DHT22;5013;51.840;8.276;2022-08-19T11:41:32;27.90;1.00
9949;DHT22;5013;51.840;8.276;2022-08-19T11:43:57;28.40;1.00
9949;DHT22;5013;51.840;8.276;2022-08-19T11:46:25;28.50;1.00
9949;DHT22;5013;51.840;8.276;2022-08-19T11:48:52;28.60;1.00
9949;DHT22;5013;51.840;8.276;2022-08-19T11:51:23;28.90;1.00
9949;DHT22;5013;51.840;8.276;2022-08-19T11:53:50;29.10;1.00
9949;DHT22;5013;51.840;8.276;2022-08-19T11:56:17;29.10;1.00
9949;DHT22;5013;51.840;8.276;2022-08-19T11:59:02;29.50;1.00
9949;DHT22;5013;51.840;8.276;2022-08-19T12:01:28;29.20;1.00
9949;DHT22;5013;51.840;8.276;2022-08-19T12:03:55;28.80;1.00
9949;DHT22;5013;51.840;8.276;2022-08-19T12:06:29;28.40;1.00
9949;DHT22;5013;51.840;8.276;2022-08-19T12:09:01;28.10;1.00
9949;DHT22;5013;51.840;8.276;2022-08-19T12:11:27;28.20;1.00
9949;DHT22;5013;51.840;8.276;2022-08-19T12:13:53;28.70;1.00
9949;DHT22;5013;51.840;8.276;2022-08-19T12:16:23;28.90;1.00
9949;DHT22;5013;51.840;8.276;2022-08-19T12:18:50;28.80;1.00
9949;DHT22;5013;51.840;8.276;2022-08-19T12:21:21;28.90;1.00
9949;DHT22;5013;51.840;8.276;2022-08-19T12:23:49;29.00;1.00
9949;DHT22;5013;51.840;8.276;2022-08-19T12:26:15;29.10;1.00
9949;DHT22;5013;51.840;8.276;2022-08-19T12:28:42;29.30;1.00
9949;DHT22;5013;51.840;8.276;2022-08-19T12:31:08;29.40;1.00
9949;DHT22;5013;51.840;8.276;2022-08-19T12:33:38;29.50;1.00
9949;DHT22;5013;51.840;8.276;2022-08-19T12:36:06;29.30;1.00
9949;DHT22;5013;51.840;8.276;2022-08-19T12:38:33;29.40;1.00
9949;DHT22;5013;51.840;8.276;2022-08-19T12:40:59;29.60;1.00
9949;DHT22;5013;51.840;8.276;2022-08-19T12:43:27;29.50;1.00
9949;DHT22;5013;51.840;8.276;2022-08-19T12:45:55;29.40;1.00
9949;DHT22;5013;51.840;8.276;2022-08-19T12:48:21;29.00;1.00
9949;DHT22;5013;51.840;8.276;2022-08-19T12:50:46;28.90;1.00
9949;DHT22;5013;51.840;8.276;2022-08-19T12:53:13;28.90;1.00
9949;DHT22;5013;51.840;8.276;2022-08-19T12:55:39;28.50;1.00
9949;DHT22;5013;51.840;8.276;2022-08-19T12:58:04;28.60;1.00
9949;DHT22;5013;51.840;8.276;2022-08-19T13:00:30;28.60;1.00
9949;DHT22;5013;51.840;8.276;2022-08-19T13:02:58;28.60;1.00
9949;DHT22;5013;51.840;8.276;2022-08-19T13:05:28;28.60;1.00
9949;DHT22;5013;51.840;8.276;2022-08-19T13:07:55;28.20;1.00
9949;DHT22;5013;51.840;8.276;2022-08-19T13:10:23;28.00;1.00
9949;DHT22;5013;51.840;8.276;2022-08-19T13:12:51;27.60;1.00
9949;DHT22;5013;51.840;8.276;2022-08-19T13:15:19;27.60;1.00
9949;DHT22;5013;51.840;8.276;2022-08-19T13:17:45;27.80;1.00
9949;DHT22;5013;51.840;8.276;2022-08-19T13:20:13;28.20;1.00
9949;DHT22;5013;51.840;8.276;2022-08-19T13:22:38;28.40;1.00
9949;DHT22;5013;51.840;8.276;2022-08-19T13:25:05;28.40;1.00
9949;DHT22;5013;51.840;8.276;2022-08-19T13:27:31;28.80;1.00
9949;DHT22;5013;51.840;8.276;2022-08-19T13:29:57;28.90;1.00
9949;DHT22;5013;51.840;8.276;2022-08-19T13:32:41;29.00;1.00
9949;DHT22;5013;51.840;8.276;2022-08-19T13:35:25;28.70;1.00
9949;DHT22;5013;51.840;8.276;2022-08-19T13:37:51;28.70;1.00
9949;DHT22;5013;51.840;8.276;2022-08-19T13:40:23;28.90;1.00
9949;DHT22;5013;51.840;8.276;2022-08-19T13:42:51;29.00;1.00
9949;DHT22;5013;51.840;8.276;2022-08-19T13:45:20;29.20;1.00
9949;DHT22;5013;51.840;8.276;2022-08-19T13:47:51;29.20;1.00
9949;DHT22;5013;51.840;8.276;2022-08-19T13:50:19;29.00;1.00
9949;DHT22;5013;51.840;8.276;2022-08-19T13:52:46;29.30;1.00
9949;DHT22;5013;51.840;8.276;2022-08-19T13:55:13;29.20;1.00
9949;DHT22;5013;51.840;8.276;2022-08-19T13:57:39;29.30;1.00
9949;DHT22;5013;51.840;8.276;2022-08-19T14:00:07;29.40;1.00
9949;DHT22;5013;51.840;8.276;2022-08-19T14:02:36;29.50;1.00
9949;DHT22;5013;51.840;8.276;2022-08-19T14:05:04;29.70;1.00
9949;DHT22;5013;51.840;8.276;2022-08-19T14:07:30;29.80;1.00
9949;DHT22;5013;51.840;8.276;2022-08-19T14:09:55;29.90;1.00
9949;DHT22;5013;51.840;8.276;2022-08-19T14:12:22;30.00;1.00
9949;DHT22;5013;51.840;8.276;2022-08-19T14:14:48;30.00;1.00
9949;DHT22;5013;51.840;8.276;2022-08-19T14:17:14;29.90;1.00
9949;DHT22;5013;51.840;8.276;2022-08-19T14:19:41;29.50;1.00
9949;DHT22;5013;51.840;8.276;2022-08-19T14:22:06;29.50;1.00
9949;DHT22;5013;51.840;8.276;2022-08-19T14:24:32;29.30;1.00
9949;DHT22;5013;51.840;8.276;2022-08-19T14:26:58;29.10;1.00
9949;DHT22;5013;51.840;8.276;2022-08-19T14:29:25;28.80;1.00
9949;DHT22;5013;51.840;8.276;2022-08-19T14:31:50;28.40;1.00
9949;DHT22;5013;51.840;8.276;2022-08-19T14:34:16;28.40;1.00
9949;DHT22;5013;51.840;8.276;2022-08-19T14:36:42;28.30;1.00
9949;DHT22;5013;51.840;8.276;2022-08-19T14:39:08;28.10;1.00
9949;DHT22;5013;51.840;8.276;2022-08-19T14:41:36;27.90;1.00
9949;DHT22;5013;51.840;8.276;2022-08-19T14:44:01;28.10;1.00
9949;DHT22;5013;51.840;8.276;2022-08-19T14:46:28;28.50;1.00
9949;DHT22;5013;51.840;8.276;2022-08-19T14:48:54;28.70;1.00
9949;DHT22;5013;51.840;8.276;2022-08-19T14:51:22;29.20;1.00
9949;DHT22;5013;51.840;8.276;2022-08-19T14:53:49;29.30;1.00
9949;DHT22;5013;51.840;8.276;2022-08-19T14:56:20;29.50;1.00
9949;DHT22;5013;51.840;8.276;2022-08-19T14:58:47;29.50;1.00
9949;DHT22;5013;51.840;8.276;2022-08-19T15:01:13;29.50;1.00
9949;DHT22;5013;51.840;8.276;2022-08-19T15:03:39;29.50;1.00
9949;DHT22;5013;51.840;8.276;2022-08-19T15:06:09;29.30;1.00
9949;DHT22;5013;51.840;8.276;2022-08-19T15:08:54;29.10;1.00
9949;DHT22;5013;51.840;8.276;2022-08-19T15:11:22;29.20;1.00
9949;DHT22;5013;51.840;8.276;2022-08-19T15:13:48;29.40;1.00
9949;DHT22;5013;51.840;8.276;2022-08-19T15:16:14;29.40;1.00
9949;DHT22;5013;51.840;8.276;2022-08-19T15:18:42;29.50;1.00
9949;DHT22;5013;51.840;8.276;2022-08-19T15:21:14;29.40;1.00
9949;DHT22;5013;51.840;8.276;2022-08-19T15:23:44;29.50;1.00
9949;DHT22;5013;51.840;8.276;2022-08-19T15:26:10;29.50;1.00
9949;DHT22;5013;51.840;8.276;2022-08-19T15:28:36;29.50;1.00
9949;DHT22;5013;51.840;8.276;2022-08-19T15:31:03;29.40;1.00
9949;DHT22;5013;51.840;8.276;2022-08-19T15:33:34;29.60;1.00
9949;DHT22;5013;51.840;8.276;2022-08-19T15:36:04;29.50;1.00
9949;DHT22;5013;51.840;8.276;2022-08-19T15:38:31;29.70;1.00
9949;DHT22;5013;51.840;8.276;2022-08-19T15:41:00;29.70;1.00
9949;DHT22;5013;51.840;8.276;2022-08-19T15:43:46;29.70;1.00
9949;DHT22;5013;51.840;8.276;2022-08-19T15:46:16;29.70;1.00
9949;DHT22;5013;51.840;8.276;2022-08-19T15:48:43;29.70;1.00
9949;DHT22;5013;51.840;8.276;2022-08-19T15:51:09;29.40;1.00
9949;DHT22;5013;51.840;8.276;2022-08-19T15:53:35;29.30;1.00
9949;DHT22;5013;51.840;8.276;2022-08-19T15:56:00;29.30;1.00
9949;DHT22;5013;51.840;8.276;2022-08-19T15:58:26;29.40;1.00
9949;DHT22;5013;51.840;8.276;2022-08-19T16:01:10;29.40;1.00
9949;DHT22;5013;51.840;8.276;2022-08-19T16:03:56;29.10;1.00
9949;DHT22;5013;51.840;8.276;2022-08-19T16:06:48;29.00;1.00
9949;DHT22;5013;51.840;8.276;2022-08-19T16:09:15;28.80;1.00
9949;DHT22;5013;51.840;8.276;2022-08-19T16:11:41;28.70;1.00
9949;DHT22;5013;51.840;8.276;2022-08-19T16:14:07;28.90;1.00
9949;DHT22;5013;51.840;8.276;2022-08-19T16:16:35;29.00;1.00
9949;DHT22;5013;51.840;8.276;2022-08-19T16:19:04;29.10;1.00
9949;DHT22;5013;51.840;8.276;2022-08-19T16:21:34;29.10;1.00
9949;DHT22;5013;51.840;8.276;2022-08-19T16:24:04;29.00;1.00
9949;DHT22;5013;51.840;8.276;2022-08-19T16:26:30;28.90;1.00
9949;DHT22;5013;51.840;8.276;2022-08-19T16:29:00;28.90;1.00
9949;DHT22;5013;51.840;8.276;2022-08-19T16:31:27;28.70;1.00